Pudong, Shanghai

9:08 AM CST on March 01, 2015 (GMT +0800)
Pudong | Change Station
CLOSE
Current Station
Airport
Location: Pudong,
Elevation: 13 ft
Nearby Weather Stations

Elev 13 ft 31.15 °N, 121.80 °E | Updated 8 minutes ago

Mist
Mist
41 °F
Feels Like 33 °F
N
16
Wind Variable Wind from NW

Today
High -- | Low -- °F
--% Chance of Precip.
Yesterday
High -- | Low -- °F
Precip. -- in
6:20 AM 5:50 PM
Waxing Gibbous, 81% visible
Pressure 30.33 in
Visibility 3.1 miles
Clouds
Windchill 33 °F
Dew Point 34 °F
Humidity 76%
Rainfall 0.00 in
Snow Depth Not available.
UV Not available.
Pollen Not available.
Air Quality Not available.
Flu Activity Not available.
METAR ZSPD 010100Z 31007MPS 5000 R35R/P2000N R34/1400N R35L/P2000U BR NSC 05/01 Q1027 NOSIG

More Conditions Fewer Conditions

Pressure 30.33 in
Visibility 3.1 miles
Clouds
Windchill 33 °F
Dew Point 34 °F
Humidity 76%
Rainfall 0.00 in
Snow Depth Not available.
UV Not available.
Pollen Not available.
Air Quality Not available.
Flu Activity Not available.
METAR ZSPD 010100Z 31007MPS 5000 R35R/P2000N R34/1400N R35L/P2000U BR NSC 05/01 Q1027 NOSIG

More Conditions Fewer Conditions

10-Day Weather Forecast

Almanac

Astronomy

Mar. 01, 2015 Rise Set
Actual Time
Civil Twilight
Nautical Twilight
Astronomical Twilight
Moon
Length of Visible Light
Length of Day
Tomorrow will be .
, % of the Moon is Illuminated

Today's Extremes

Country Highs Country Lows

Community

WunderPhotos

Upload Photos

1,801,217 photos uploaded!

WunderBlogs® & News

Nearby

Air Quality

  Air Quality AQ Index Pollutant
Not available.

Snow Depth

Station Depth Elevation

Earthquake Activity

City Distance Mag. Time & Date
Minimum magnitude displayed is 2.5.

Coastal Water Temperatures

Place Temperature

Nearby Weather Stations